createdAt,value
2023-01-21T00:01:01.170Z,13.43
2023-01-21T00:03:28.047Z,13.27
2023-01-21T00:05:55.044Z,11.93
2023-01-21T00:08:21.928Z,12.93
2023-01-21T00:10:48.780Z,12.05
2023-01-21T00:13:15.492Z,13.45
2023-01-21T00:15:42.249Z,13.25
2023-01-21T00:18:09.211Z,13.68
2023-01-21T00:20:36.291Z,12.55
2023-01-21T00:23:03.103Z,12.07
2023-01-21T00:25:35.776Z,13.15
2023-01-21T00:28:03.420Z,12.18
2023-01-21T00:30:30.753Z,11.73
2023-01-21T00:32:57.517Z,12.00
2023-01-21T00:35:24.315Z,12.25
2023-01-21T00:37:51.826Z,12.18
2023-01-21T00:40:19.131Z,12.65
2023-01-21T00:42:46.177Z,12.88
2023-01-21T00:45:12.932Z,12.95
2023-01-21T00:47:40.270Z,12.73
2023-01-21T00:50:07.738Z,12.63
2023-01-21T00:52:34.480Z,12.27
2023-01-21T00:55:01.281Z,12.85
2023-01-21T00:57:28.101Z,12.55
2023-01-21T00:59:54.992Z,13.02
2023-01-21T01:02:21.790Z,13.32
2023-01-21T01:04:48.635Z,12.98
2023-01-21T01:07:15.484Z,13.00
2023-01-21T01:09:42.295Z,12.15
2023-01-21T01:12:09.070Z,12.40
2023-01-21T01:14:36.241Z,14.05
2023-01-21T01:17:03.083Z,12.35
2023-01-21T01:19:30.549Z,13.95
2023-01-21T01:21:57.515Z,13.82
2023-01-21T01:24:24.368Z,12.63
2023-01-21T01:26:51.066Z,14.30
2023-01-21T01:29:18.692Z,13.25
2023-01-21T01:31:45.738Z,14.30
2023-01-21T01:34:12.706Z,14.02
2023-01-21T01:36:39.520Z,13.68
2023-01-21T01:39:06.409Z,14.63
2023-01-21T01:41:35.341Z,13.18
2023-01-21T01:44:24.393Z,13.63
2023-01-21T01:46:51.357Z,13.48
2023-01-21T01:49:21.324Z,14.90
2023-01-21T01:51:55.316Z,14.35
2023-01-21T01:54:34.706Z,15.40
2023-01-21T01:57:03.050Z,15.90
2023-01-21T01:59:30.719Z,15.15
2023-01-21T02:01:59.390Z,15.27
2023-01-21T02:04:30.161Z,14.38
2023-01-21T02:06:57.804Z,15.48
2023-01-21T02:09:30.090Z,15.73
2023-01-21T02:11:58.660Z,14.90
2023-01-21T02:14:25.717Z,14.65
2023-01-21T02:17:02.555Z,14.88
2023-01-21T02:19:29.234Z,16.38
2023-01-21T02:22:23.112Z,14.90
2023-01-21T02:24:55.891Z,15.75
2023-01-21T02:27:42.811Z,15.95
2023-01-21T02:30:41.355Z,14.90
2023-01-21T02:33:09.906Z,16.05
2023-01-21T02:35:45.747Z,15.52
2023-01-21T02:38:22.341Z,17.70
2023-01-21T02:41:01.718Z,16.17
2023-01-21T02:43:44.417Z,15.75
2023-01-21T02:46:46.162Z,17.25
2023-01-21T02:49:24.633Z,16.63
2023-01-21T02:51:51.442Z,16.83
2023-01-21T02:54:40.338Z,16.55
2023-01-21T02:57:09.067Z,16.23
2023-01-21T02:59:36.951Z,15.93
2023-01-21T03:02:15.820Z,17.00
2023-01-21T03:05:19.301Z,17.08
2023-01-21T03:08:01.913Z,17.05
2023-01-21T03:10:49.648Z,17.25
2023-01-21T03:13:51.391Z,16.90
2023-01-21T03:16:40.350Z,16.98
2023-01-21T03:19:09.777Z,17.92
2023-01-21T03:21:36.966Z,17.85
2023-01-21T03:24:04.304Z,16.60
2023-01-21T03:26:33.804Z,17.80
2023-01-21T03:29:05.157Z,17.70
2023-01-21T03:31:33.880Z,17.08
2023-01-21T03:34:04.269Z,19.38
2023-01-21T03:36:37.419Z,18.08
2023-01-21T03:39:10.452Z,17.73
2023-01-21T03:41:39.022Z,17.75
2023-01-21T03:44:06.278Z,17.88
2023-01-21T03:46:45.489Z,18.02
2023-01-21T03:49:41.920Z,18.80
2023-01-21T03:52:10.131Z,17.42
2023-01-21T03:54:36.984Z,17.67
2023-01-21T03:57:03.805Z,18.75
2023-01-21T03:59:30.526Z,18.08
2023-01-21T04:01:57.316Z,19.83
2023-01-21T04:04:24.118Z,19.50
2023-01-21T04:06:51.076Z,18.40
2023-01-21T04:09:17.837Z,19.30
2023-01-21T04:11:44.975Z,18.92
2023-01-21T04:14:12.155Z,19.80
2023-01-21T04:16:39.435Z,18.98
2023-01-21T04:19:06.416Z,18.27
2023-01-21T04:21:33.160Z,19.90
2023-01-21T04:23:59.913Z,20.40
2023-01-21T04:26:27.597Z,19.58
2023-01-21T04:28:54.570Z,19.10
2023-01-21T04:31:21.618Z,18.70
2023-01-21T04:33:48.570Z,18.13
2023-01-21T04:36:15.457Z,18.50
2023-01-21T04:38:42.301Z,19.23
2023-01-21T04:41:09.135Z,18.77
2023-01-21T04:43:36.064Z,19.25
2023-01-21T04:46:02.966Z,18.73
2023-01-21T04:48:29.795Z,18.80
2023-01-21T04:50:56.634Z,19.85
2023-01-21T04:53:23.458Z,19.27
2023-01-21T04:55:53.834Z,18.98
2023-01-21T04:58:21.235Z,19.20
2023-01-21T05:00:48.150Z,19.30
2023-01-21T05:03:15.473Z,19.42
2023-01-21T05:05:42.326Z,19.98
2023-01-21T05:08:09.284Z,19.00
2023-01-21T05:10:36.240Z,20.42
2023-01-21T05:13:03.400Z,19.85
2023-01-21T05:15:30.322Z,19.45
2023-01-21T05:17:57.232Z,18.35
2023-01-21T05:20:23.964Z,19.48
2023-01-21T05:22:50.918Z,18.75
2023-01-21T05:25:17.836Z,19.77
2023-01-21T05:27:44.564Z,19.95
2023-01-21T05:30:11.705Z,20.77
2023-01-21T05:32:38.785Z,20.50
2023-01-21T05:35:05.986Z,20.23
2023-01-21T05:37:32.695Z,20.52
2023-01-21T05:39:59.512Z,19.25
2023-01-21T05:42:26.301Z,20.42
2023-01-21T05:44:53.408Z,18.98
2023-01-21T05:47:20.263Z,19.90
2023-01-21T05:49:47.572Z,19.67
2023-01-21T05:52:14.902Z,20.55
2023-01-21T05:54:49.247Z,20.25
2023-01-21T05:57:23.051Z,19.00
2023-01-21T05:59:49.780Z,19.92
2023-01-21T06:02:16.883Z,20.10
2023-01-21T06:04:43.755Z,19.75
2023-01-21T06:07:10.722Z,20.60
2023-01-21T06:09:37.484Z,20.52
2023-01-21T06:12:04.837Z,20.83
2023-01-21T06:14:31.561Z,21.02
2023-01-21T06:16:58.568Z,19.92
2023-01-21T06:19:25.327Z,19.98
2023-01-21T06:21:52.659Z,19.05
2023-01-21T06:24:19.468Z,20.17
2023-01-21T06:26:47.076Z,20.38
2023-01-21T06:29:14.024Z,19.88
2023-01-21T06:31:41.453Z,21.23
2023-01-21T06:34:09.354Z,21.65
2023-01-21T06:36:36.518Z,21.50
2023-01-21T06:39:03.191Z,20.80
2023-01-21T06:41:30.286Z,21.92
2023-01-21T06:43:57.015Z,22.52
2023-01-21T06:46:23.855Z,25.10
2023-01-21T06:48:52.231Z,28.98
2023-01-21T06:51:19.665Z,28.88
2023-01-21T06:53:46.500Z,28.55
2023-01-21T06:56:13.355Z,26.90
2023-01-21T06:58:40.159Z,25.35
2023-01-21T07:01:06.890Z,22.90
2023-01-21T07:03:33.687Z,23.20
2023-01-21T07:06:00.534Z,22.77
2023-01-21T07:08:27.363Z,21.20
2023-01-21T07:10:54.906Z,20.95
2023-01-21T07:13:21.616Z,21.58
2023-01-21T07:15:48.383Z,22.02
2023-01-21T07:18:15.108Z,21.00
2023-01-21T07:20:44.349Z,20.30
2023-01-21T07:23:11.040Z,21.00
2023-01-21T07:25:38.303Z,20.92
2023-01-21T07:28:05.204Z,22.90
2023-01-21T07:30:31.984Z,21.33
2023-01-21T07:32:58.668Z,22.38
2023-01-21T07:35:25.491Z,22.08
2023-01-21T07:37:52.380Z,20.35
2023-01-21T07:40:19.423Z,22.05
2023-01-21T07:42:54.174Z,22.02
2023-01-21T07:45:22.257Z,23.08
2023-01-21T07:47:49.460Z,21.50
2023-01-21T07:50:16.916Z,21.85
2023-01-21T07:52:43.781Z,22.05
2023-01-21T07:55:12.569Z,21.95
2023-01-21T07:57:39.554Z,23.30
2023-01-21T08:00:07.590Z,21.23
2023-01-21T08:02:46.099Z,22.10
2023-01-21T08:05:12.969Z,22.60
2023-01-21T08:07:39.742Z,22.98
2023-01-21T08:10:06.711Z,22.58
2023-01-21T08:12:33.489Z,23.13
2023-01-21T08:15:00.278Z,22.02
2023-01-21T08:17:27.230Z,21.63
2023-01-21T08:19:54.000Z,22.80
2023-01-21T08:22:20.748Z,21.52
2023-01-21T08:24:47.732Z,21.17
2023-01-21T08:27:14.739Z,22.73
2023-01-21T08:29:41.559Z,22.70
2023-01-21T08:32:08.223Z,22.55
2023-01-21T08:34:35.046Z,23.77
2023-01-21T08:37:01.894Z,23.17
2023-01-21T08:39:28.620Z,22.75
2023-01-21T08:41:55.359Z,22.55
2023-01-21T08:44:22.082Z,22.25
2023-01-21T08:46:49.075Z,23.15
2023-01-21T08:49:15.885Z,22.67
2023-01-21T08:51:43.168Z,22.77
2023-01-21T08:54:09.898Z,22.40
2023-01-21T08:56:36.663Z,22.52
2023-01-21T08:59:03.465Z,23.00
2023-01-21T09:01:30.218Z,21.50
2023-01-21T09:03:58.249Z,23.80
2023-01-21T09:06:27.946Z,22.88
2023-01-21T09:08:58.425Z,21.30
2023-01-21T09:11:25.976Z,21.30
2023-01-21T09:13:52.990Z,21.92
2023-01-21T09:16:21.857Z,23.55
2023-01-21T09:18:49.172Z,23.23
2023-01-21T09:21:16.672Z,22.00
2023-01-21T09:23:44.435Z,22.08
2023-01-21T09:26:22.389Z,22.00
2023-01-21T09:29:01.215Z,21.15
2023-01-21T09:31:29.743Z,21.30
2023-01-21T09:34:02.475Z,21.35
2023-01-21T09:36:31.830Z,22.23
2023-01-21T09:38:59.158Z,21.73
2023-01-21T09:41:47.507Z,21.75
2023-01-21T09:44:34.355Z,21.55
2023-01-21T09:47:25.958Z,22.52
2023-01-21T09:50:03.773Z,22.90
2023-01-21T09:52:52.392Z,21.83
2023-01-21T09:55:35.611Z,20.83
2023-01-21T09:58:26.909Z,22.08
2023-01-21T10:01:06.114Z,22.33
2023-01-21T10:03:46.143Z,21.42
2023-01-21T10:06:16.073Z,20.73
2023-01-21T10:08:46.222Z,20.90
2023-01-21T10:11:21.176Z,22.38
2023-01-21T10:14:23.643Z,21.48
2023-01-21T10:17:14.971Z,22.63
2023-01-21T10:19:51.034Z,22.50
2023-01-21T10:22:21.995Z,21.80
2023-01-21T10:24:52.417Z,21.45
2023-01-21T10:27:20.958Z,21.35
2023-01-21T10:29:55.940Z,21.40
2023-01-21T10:32:25.801Z,21.27
2023-01-21T10:34:55.577Z,22.27
2023-01-21T10:37:37.539Z,22.10
2023-01-21T10:40:43.973Z,21.52
2023-01-21T10:43:36.303Z,22.60
2023-01-21T10:46:30.556Z,20.90
2023-01-21T10:49:11.423Z,22.08
2023-01-21T10:51:44.081Z,21.52
2023-01-21T10:54:32.750Z,22.48
2023-01-21T10:57:37.093Z,21.75
2023-01-21T11:00:05.367Z,21.15
2023-01-21T11:02:34.090Z,21.35
2023-01-21T11:05:04.075Z,21.17
2023-01-21T11:07:39.379Z,21.27
2023-01-21T11:10:09.836Z,21.83
2023-01-21T11:12:36.638Z,22.50
2023-01-21T11:15:13.881Z,21.90
2023-01-21T11:17:42.445Z,21.88
2023-01-21T11:20:39.610Z,21.73
2023-01-21T11:23:07.668Z,21.15
2023-01-21T11:25:41.771Z,23.98
2023-01-21T11:28:26.504Z,22.90
2023-01-21T11:31:07.431Z,23.30
2023-01-21T11:33:34.764Z,21.70
2023-01-21T11:36:13.882Z,21.80
2023-01-21T11:38:40.952Z,21.75
2023-01-21T11:41:21.217Z,23.25
2023-01-21T11:43:51.311Z,25.05
2023-01-21T11:46:30.657Z,23.80
2023-01-21T11:49:19.237Z,24.25
2023-01-21T11:51:47.410Z,24.63
2023-01-21T11:54:22.005Z,23.33
2023-01-21T11:57:00.468Z,25.25
2023-01-21T11:59:34.284Z,24.10
2023-01-21T12:02:10.388Z,25.70
2023-01-21T12:04:37.607Z,24.48
2023-01-21T12:07:05.490Z,26.77
2023-01-21T12:09:32.246Z,25.42
2023-01-21T12:12:11.446Z,24.35
2023-01-21T12:14:59.271Z,25.98
2023-01-21T12:17:52.426Z,25.42
2023-01-21T12:20:33.652Z,26.30
2023-01-21T12:23:26.212Z,27.48
2023-01-21T12:26:02.873Z,28.75
2023-01-21T12:31:51.169Z,27.15
2023-01-21T12:34:28.296Z,26.80
2023-01-21T12:37:00.121Z,25.45
2023-01-21T12:39:33.452Z,24.00
2023-01-21T12:42:14.655Z,21.65
2023-01-21T12:44:53.369Z,22.63
2023-01-21T12:47:53.987Z,23.40
2023-01-21T12:50:39.714Z,23.38
2023-01-21T12:53:09.714Z,20.80
2023-01-21T12:55:58.422Z,21.50
2023-01-21T12:58:35.319Z,20.67
2023-01-21T13:01:09.650Z,20.42
2023-01-21T13:04:05.131Z,18.83
2023-01-21T13:06:53.118Z,18.98
2023-01-21T13:09:32.748Z,19.95
2023-01-21T13:12:11.918Z,20.88
2023-01-21T13:14:48.364Z,20.13
2023-01-21T13:17:19.825Z,19.70
2023-01-21T13:19:46.878Z,22.42
2023-01-21T13:22:39.879Z,20.38
2023-01-21T13:25:22.069Z,21.42
2023-01-21T13:28:12.538Z,21.38
2023-01-21T13:30:47.764Z,22.83
2023-01-21T13:33:52.215Z,23.63
2023-01-21T13:36:56.723Z,21.92
2023-01-21T13:39:44.787Z,20.05
2023-01-21T13:42:50.221Z,22.58
2023-01-21T13:45:46.070Z,21.73
2023-01-21T13:48:24.698Z,22.05
2023-01-21T13:51:05.644Z,22.88
2023-01-21T13:53:58.774Z,24.92
2023-01-21T13:56:45.096Z,22.42
2023-01-21T13:59:18.074Z,24.33
2023-01-21T14:01:55.124Z,22.50
2023-01-21T14:04:38.412Z,22.00
2023-01-21T14:07:22.423Z,23.38
2023-01-21T14:10:00.610Z,24.13
2023-01-21T14:12:41.903Z,23.77
2023-01-21T14:15:19.657Z,22.65
2023-01-21T14:18:18.715Z,23.63
2023-01-21T14:21:08.250Z,23.80
2023-01-21T14:23:39.343Z,23.33
2023-01-21T14:26:25.415Z,22.80
2023-01-21T14:29:06.678Z,23.50
2023-01-21T14:32:03.496Z,22.73
2023-01-21T14:34:35.199Z,22.25
2023-01-21T14:37:17.440Z,22.27
2023-01-21T14:39:58.366Z,22.38
2023-01-21T14:42:46.471Z,22.77
2023-01-21T14:45:15.978Z,22.65
2023-01-21T14:47:48.272Z,22.42
2023-01-21T14:50:43.047Z,23.65
2023-01-21T14:53:18.748Z,20.98
2023-01-21T14:55:45.728Z,21.13
2023-01-21T14:58:24.599Z,20.33
2023-01-21T15:00:51.672Z,21.40
2023-01-21T15:03:29.241Z,20.25
2023-01-21T15:06:00.499Z,19.88
2023-01-21T15:08:30.524Z,20.55
2023-01-21T15:11:08.209Z,19.27
2023-01-21T15:13:35.149Z,22.05
2023-01-21T15:16:26.615Z,20.27
2023-01-21T15:19:08.911Z,20.40
2023-01-21T15:21:42.294Z,22.20
2023-01-21T15:24:35.359Z,22.80
2023-01-21T15:27:18.481Z,19.85
2023-01-21T15:29:54.637Z,20.80
2023-01-21T15:32:38.851Z,20.20
2023-01-21T15:35:20.590Z,20.02
2023-01-21T15:37:52.184Z,19.27
2023-01-21T15:40:28.274Z,19.52
2023-01-21T15:43:05.815Z,21.45
2023-01-21T15:46:09.882Z,21.48
2023-01-21T15:49:02.136Z,20.75
2023-01-21T15:51:44.544Z,19.08
2023-01-21T15:54:17.360Z,19.88
2023-01-21T15:57:02.519Z,19.48
2023-01-21T15:59:56.886Z,20.95
2023-01-21T16:02:26.410Z,21.10
2023-01-21T16:05:31.156Z,20.95
2023-01-21T16:08:14.452Z,20.27
2023-01-21T16:11:13.852Z,21.02
2023-01-21T16:14:20.550Z,20.10
2023-01-21T16:17:07.059Z,21.02
2023-01-21T16:19:38.428Z,18.73
2023-01-21T16:22:07.843Z,19.83
2023-01-21T16:24:39.380Z,20.23
2023-01-21T16:27:26.928Z,19.50
2023-01-21T16:30:14.607Z,20.35
2023-01-21T16:32:42.235Z,18.90
2023-01-21T16:35:09.374Z,20.55
2023-01-21T16:37:36.828Z,19.85
2023-01-21T16:40:09.715Z,19.38
2023-01-21T16:42:40.969Z,20.98
2023-01-21T16:45:19.368Z,21.48
2023-01-21T16:47:53.563Z,22.02
2023-01-21T16:50:26.593Z,21.65
2023-01-21T16:52:55.016Z,21.13
2023-01-21T16:55:30.184Z,19.98
2023-01-21T16:57:59.118Z,20.52
2023-01-21T17:00:31.480Z,20.73
2023-01-21T17:02:59.584Z,19.98
2023-01-21T17:05:29.226Z,21.15
2023-01-21T17:08:02.361Z,21.27
2023-01-21T17:10:53.114Z,20.17
2023-01-21T17:13:20.264Z,20.90
2023-01-21T17:15:58.595Z,20.08
2023-01-21T17:18:39.516Z,19.33
2023-01-21T17:21:13.858Z,22.33
2023-01-21T17:23:51.630Z,22.42
2023-01-21T17:26:38.163Z,19.88
2023-01-21T17:29:19.743Z,19.00
2023-01-21T17:31:55.089Z,20.40
2023-01-21T17:34:28.125Z,20.27
2023-01-21T17:36:55.614Z,19.08
2023-01-21T17:39:50.296Z,20.20
2023-01-21T17:42:19.263Z,19.33
2023-01-21T17:44:51.535Z,20.75
2023-01-21T17:47:33.246Z,18.75
2023-01-21T17:50:09.238Z,19.58
2023-01-21T17:52:36.327Z,20.60
2023-01-21T17:55:31.070Z,21.67
2023-01-21T17:58:00.315Z,21.25
2023-01-21T18:00:39.505Z,21.27
2023-01-21T18:03:06.508Z,20.65
2023-01-21T18:05:33.386Z,21.13
2023-01-21T18:08:00.323Z,21.75
2023-01-21T18:10:28.926Z,21.67
2023-01-21T18:12:58.180Z,21.35
2023-01-21T18:15:26.140Z,21.17
2023-01-21T18:18:00.516Z,21.33
2023-01-21T18:20:29.183Z,21.33
2023-01-21T18:22:57.788Z,22.83
2023-01-21T18:25:26.294Z,22.88
2023-01-21T18:27:56.675Z,22.80
2023-01-21T18:30:29.169Z,23.05
2023-01-21T18:32:57.129Z,21.02
2023-01-21T18:35:28.675Z,24.13
2023-01-21T18:37:57.334Z,22.95
2023-01-21T18:40:27.276Z,22.67
2023-01-21T18:42:56.015Z,23.60
2023-01-21T18:45:26.591Z,22.20
2023-01-21T18:47:53.788Z,23.58
2023-01-21T18:50:26.034Z,24.02
2023-01-21T18:52:57.973Z,23.75
2023-01-21T18:55:31.887Z,23.90
2023-01-21T18:58:08.057Z,23.17
2023-01-21T19:00:34.963Z,22.92
2023-01-21T19:03:01.898Z,22.58
2023-01-21T19:05:36.316Z,21.20
2023-01-21T19:08:16.858Z,23.33
2023-01-21T19:10:43.938Z,20.60
2023-01-21T19:13:11.898Z,22.00
2023-01-21T19:15:39.063Z,22.77
2023-01-21T19:18:13.694Z,23.13
2023-01-21T19:20:41.834Z,23.60
2023-01-21T19:23:17.053Z,21.88
2023-01-21T19:25:48.231Z,22.92
2023-01-21T19:28:17.618Z,22.98
2023-01-21T19:30:47.978Z,23.45
2023-01-21T19:33:15.865Z,21.98
2023-01-21T19:35:46.649Z,23.17
2023-01-21T19:38:21.240Z,22.10
2023-01-21T19:40:48.248Z,22.08
2023-01-21T19:43:18.388Z,22.77
2023-01-21T19:45:45.301Z,22.92
2023-01-21T19:48:16.984Z,20.92
2023-01-21T19:50:43.970Z,22.50
2023-01-21T19:53:14.632Z,22.23
2023-01-21T19:55:42.126Z,23.52
2023-01-21T19:58:19.757Z,23.05
2023-01-21T20:00:49.493Z,22.80
2023-01-21T20:03:19.695Z,21.50
2023-01-21T20:05:58.327Z,21.92
2023-01-21T20:08:27.620Z,23.02
2023-01-21T20:10:54.919Z,22.45
2023-01-21T20:13:22.018Z,22.92
2023-01-21T20:15:50.387Z,21.90
2023-01-21T20:18:25.934Z,22.42
2023-01-21T20:20:53.455Z,21.83
2023-01-21T20:23:21.553Z,21.90
2023-01-21T20:25:54.682Z,20.75
2023-01-21T20:28:23.051Z,21.67
2023-01-21T20:30:51.469Z,20.95
2023-01-21T20:33:21.650Z,21.45
2023-01-21T20:35:54.867Z,23.95
2023-01-21T20:38:28.380Z,23.50
2023-01-21T20:40:57.856Z,24.50
2023-01-21T20:43:24.683Z,24.55
2023-01-21T20:45:51.837Z,23.52
2023-01-21T20:48:25.297Z,23.67
2023-01-21T20:50:55.456Z,23.02
2023-01-21T20:53:26.040Z,23.08
2023-01-21T20:55:53.399Z,23.52
2023-01-21T20:58:22.162Z,22.88
2023-01-21T21:00:49.486Z,22.95
2023-01-21T21:03:18.396Z,22.13
2023-01-21T21:05:46.929Z,22.88
2023-01-21T21:08:16.740Z,22.05
2023-01-21T21:10:44.381Z,21.13
2023-01-21T21:13:12.188Z,20.88
2023-01-21T21:15:39.633Z,21.77
2023-01-21T21:18:07.030Z,21.63
2023-01-21T21:20:37.046Z,22.25
2023-01-21T21:23:07.686Z,22.00
2023-01-21T21:25:40.697Z,20.35
2023-01-21T21:28:07.608Z,20.23
2023-01-21T21:30:34.992Z,20.98
2023-01-21T21:33:02.368Z,20.77
2023-01-21T21:35:35.315Z,20.23
2023-01-21T21:38:13.172Z,20.00
2023-01-21T21:40:40.084Z,19.75
2023-01-21T21:43:27.051Z,19.55
2023-01-21T21:46:12.744Z,20.58
2023-01-21T21:48:39.802Z,20.10
2023-01-21T21:51:14.493Z,21.13
2023-01-21T21:53:45.160Z,20.45
2023-01-21T21:56:17.372Z,19.95
2023-01-21T21:58:44.958Z,19.52
2023-01-21T22:01:22.294Z,18.00
2023-01-21T22:03:49.627Z,18.98
2023-01-21T22:06:20.863Z,18.35
2023-01-21T22:08:48.618Z,17.90
2023-01-21T22:11:20.038Z,17.88
2023-01-21T22:13:50.203Z,17.90
2023-01-21T22:16:28.274Z,17.90
2023-01-21T22:18:56.302Z,17.08
2023-01-21T22:21:27.940Z,17.35
2023-01-21T22:23:55.383Z,18.00
2023-01-21T22:26:24.883Z,17.98
2023-01-21T22:28:51.780Z,18.33
2023-01-21T22:31:24.823Z,18.63
2023-01-21T22:33:51.991Z,17.85
2023-01-21T22:36:20.928Z,18.25
2023-01-21T22:38:48.016Z,17.35
2023-01-21T22:41:16.845Z,16.50
2023-01-21T22:43:45.083Z,15.88
2023-01-21T22:46:13.987Z,15.60
2023-01-21T22:48:42.170Z,15.27
2023-01-21T22:51:12.159Z,15.45
2023-01-21T22:53:43.965Z,15.13
2023-01-21T22:56:13.063Z,15.98
2023-01-21T22:58:39.973Z,14.55
2023-01-21T23:01:07.401Z,15.23
2023-01-21T23:03:34.479Z,16.45
2023-01-21T23:06:08.472Z,16.55
2023-01-21T23:08:38.349Z,16.15
2023-01-21T23:11:06.878Z,15.48
2023-01-21T23:13:34.227Z,16.90
2023-01-21T23:16:01.589Z,16.42
2023-01-21T23:18:29.488Z,14.68
2023-01-21T23:20:56.373Z,15.55
2023-01-21T23:23:24.067Z,15.32
2023-01-21T23:25:51.115Z,16.60
2023-01-21T23:28:17.924Z,15.40
2023-01-21T23:30:45.001Z,15.60
2023-01-21T23:33:11.996Z,14.88
2023-01-21T23:35:38.637Z,16.83
2023-01-21T23:38:05.512Z,15.80
2023-01-21T23:40:32.377Z,16.27
2023-01-21T23:42:59.378Z,16.27
2023-01-21T23:45:26.142Z,15.90
2023-01-21T23:47:54.340Z,15.70
2023-01-21T23:50:21.239Z,16.10
2023-01-21T23:52:48.075Z,15.65
2023-01-21T23:55:14.937Z,17.95
2023-01-21T23:57:41.743Z,17.35
